Time;durP1;ratioP1;P1;durP2;ratioP2;P2;SDS_P1;SDS_P2;PMS_P1;PMS_P2;Temp;Humidity;BMP_temperature;BMP_pressure;BME280_temperature;BME280_humidity;BME280_pressure;Samples;Min_cycle;Max_cycle;Signal;HPM_P1;HPM_P2
2022/09/09 00:00:24;;;;;;;6.50;5.20;;;;;;;20.25;57.11;100688.38;116891;1184;23567;-66
2022/09/09 00:03:03;;;;;;;6.30;4.60;;;;;;;20.23;57.31;100691.15;117154;1184;22642;-67
2022/09/09 00:05:45;;;;;;;7.90;4.30;;;;;;;20.18;57.39;100697.42;117102;1184;23436;-60
2022/09/09 00:08:19;;;;;;;8.40;4.70;;;;;;;20.12;57.41;100700.91;117067;1185;23555;-67
2022/09/09 00:10:49;;;;;;;12.70;5.80;;;;;;;20.09;57.37;100702.09;117142;1184;23046;-60
2022/09/09 00:13:20;;;;;;;5.70;4.80;;;;;;;20.07;57.46;100706.32;117136;1185;24150;-66
2022/09/09 00:16:03;;;;;;;7.70;4.50;;;;;;;20.05;57.44;100709.45;117073;1184;21870;-65
2022/09/09 00:19:00;;;;;;;7.00;4.90;;;;;;;19.99;57.49;100710.05;117001;1187;21969;-66
2022/09/09 00:21:36;;;;;;;7.70;5.00;;;;;;;19.95;57.59;100712.73;116880;1188;22929;-60
2022/09/09 00:24:27;;;;;;;6.70;4.50;;;;;;;19.92;57.56;100714.46;116863;1186;23452;-66
2022/09/09 00:27:32;;;;;;;8.10;4.50;;;;;;;19.87;57.51;100715.90;117059;1184;21871;-66
2022/09/09 00:30:13;;;;;;;7.60;4.70;;;;;;;19.83;57.61;100719.14;116893;1186;23494;-60
2022/09/09 00:32:43;;;;;;;6.50;4.30;;;;;;;19.81;57.60;100714.62;117142;1188;21901;-66
2022/09/09 00:35:22;;;;;;;7.10;4.80;;;;;;;19.78;57.60;100714.56;116983;1184;21856;-60
2022/09/09 00:37:53;;;;;;;6.80;5.10;;;;;;;19.77;57.68;100715.12;117153;1186;21858;-60
2022/09/09 00:40:24;;;;;;;6.80;5.10;;;;;;;19.75;57.59;100719.83;117068;1185;21859;-60
2022/09/09 00:43:16;;;;;;;6.70;5.30;;;;;;;19.73;57.64;100721.36;116966;1187;21861;-66
2022/09/09 00:46:25;;;;;;;6.50;4.80;;;;;;;19.67;57.74;100722.52;116984;1187;22822;-60
2022/09/09 00:49:05;;;;;;;15.20;6.10;;;;;;;19.61;57.86;100724.04;117016;1186;22553;-66
2022/09/09 00:52:04;;;;;;;7.30;5.00;;;;;;;19.55;58.16;100725.73;116996;1186;21862;-59
2022/09/09 00:54:45;;;;;;;9.30;4.50;;;;;;;19.49;57.99;100723.83;117088;1187;22947;-60
2022/09/09 00:57:19;;;;;;;9.00;5.20;;;;;;;19.45;58.16;100722.77;116989;1186;23462;-60
2022/09/09 00:59:48;;;;;;;10.80;5.70;;;;;;;19.40;58.13;100721.92;117002;1188;22644;-59
2022/09/09 01:02:31;;;;;;;7.80;5.10;;;;;;;19.36;58.24;100725.48;117130;1182;23452;-67
2022/09/09 01:05:05;;;;;;;6.80;5.20;;;;;;;19.32;58.26;100721.56;117030;1187;22452;-66
2022/09/09 01:07:34;;;;;;;10.80;5.60;;;;;;;19.31;58.31;100719.46;116974;1189;21900;-59
2022/09/09 01:10:03;;;;;;;7.40;5.50;;;;;;;19.33;58.30;100715.98;117119;1187;21855;-66
2022/09/09 01:12:38;;;;;;;7.40;5.30;;;;;;;19.35;58.21;100713.77;117051;1188;24278;-66
2022/09/09 01:15:10;;;;;;;9.20;5.00;;;;;;;19.37;58.33;100715.30;117025;1186;22648;-60
2022/09/09 01:18:01;;;;;;;7.20;5.30;;;;;;;19.35;58.34;100714.66;117050;1184;23567;-60
2022/09/09 01:20:39;;;;;;;10.90;5.90;;;;;;;19.36;58.32;100720.86;117004;1189;23472;-66
2022/09/09 01:23:34;;;;;;;9.40;5.40;;;;;;;19.38;58.29;100720.60;117189;1182;21854;-66
2022/09/09 01:26:27;;;;;;;6.90;5.00;;;;;;;19.39;58.36;100722.68;117127;1186;23555;-60
2022/09/09 01:28:54;;;;;;;8.30;5.20;;;;;;;19.41;58.37;100722.08;117278;1182;24286;-57
2022/09/09 01:31:27;;;;;;;6.70;5.20;;;;;;;19.42;58.35;100721.14;117401;1185;22555;-65
2022/09/09 01:33:54;;;;;;;11.20;5.60;;;;;;;19.40;58.50;100720.34;117164;1185;23599;-66
2022/09/09 01:36:33;;;;;;;8.90;5.80;;;;;;;19.39;58.50;100725.52;117257;1186;22934;-65
2022/09/09 01:39:01;;;;;;;11.30;5.70;;;;;;;19.38;58.65;100729.86;116994;1185;23460;-65
2022/09/09 01:41:29;;;;;;;7.40;5.40;;;;;;;19.37;58.66;100728.11;117191;1188;22333;-65
2022/09/09 01:43:57;;;;;;;7.80;5.50;;;;;;;19.37;58.70;100723.32;116963;1186;23566;-58
2022/09/09 01:46:24;;;;;;;13.70;6.30;;;;;;;19.35;58.60;100720.56;117210;1187;21857;-59
2022/09/09 01:48:55;;;;;;;7.40;5.80;;;;;;;19.33;58.73;100718.14;116840;1189;21859;-58
2022/09/09 01:51:22;;;;;;;7.80;5.50;;;;;;;19.32;58.54;100723.51;117240;1182;23493;-58
2022/09/09 01:53:49;;;;;;;8.50;5.60;;;;;;;19.32;58.51;100722.80;117117;1188;21854;-59
2022/09/09 01:56:55;;;;;;;8.40;5.80;;;;;;;19.31;58.78;100721.23;117168;1186;24150;-59
2022/09/09 01:59:46;;;;;;;9.00;5.30;;;;;;;19.31;58.85;100726.59;116887;1189;21881;-58
2022/09/09 02:02:18;;;;;;;10.50;5.50;;;;;;;19.29;58.87;100725.06;116816;1191;22931;-59
2022/09/09 02:04:58;;;;;;;7.20;5.60;;;;;;;19.29;58.88;100725.23;117027;1189;23650;-66
2022/09/09 02:07:41;;;;;;;6.90;5.50;;;;;;;19.29;58.88;100727.91;117116;1186;23495;-59
2022/09/09 02:10:11;;;;;;;8.10;5.30;;;;;;;19.29;58.72;100733.26;117071;1183;23525;-65
2022/09/09 02:12:40;;;;;;;13.80;6.00;;;;;;;19.26;58.71;100739.04;117180;1188;21857;-65
2022/09/09 02:15:15;;;;;;;8.00;5.50;;;;;;;19.25;58.65;100743.73;117287;1182;24238;-66
2022/09/09 02:17:42;;;;;;;7.90;5.40;;;;;;;19.25;58.54;100740.17;117229;1183;22967;-65
2022/09/09 02:20:14;;;;;;;8.40;5.40;;;;;;;19.27;58.46;100740.46;117337;1185;24173;-66
2022/09/09 02:22:43;;;;;;;7.30;5.20;;;;;;;19.26;58.28;100741.39;117078;1189;21872;-65
2022/09/09 02:25:14;;;;;;;5.90;5.20;;;;;;;19.24;58.24;100740.74;117080;1182;23458;-65
2022/09/09 02:27:41;;;;;;;10.80;6.00;;;;;;;19.21;58.18;100739.14;117070;1187;21858;-59
2022/09/09 02:30:09;;;;;;;6.00;5.20;;;;;;;19.16;58.10;100738.41;116899;1186;23497;-65
2022/09/09 02:32:36;;;;;;;5.40;4.80;;;;;;;19.14;58.03;100736.36;117150;1186;21914;-58
2022/09/09 02:35:08;;;;;;;6.70;4.90;;;;;;;19.12;57.99;100736.11;116923;1186;22465;-62
2022/09/09 02:37:37;;;;;;;8.40;5.10;;;;;;;19.09;57.93;100736.77;117119;1186;21868;-58
2022/09/09 02:40:05;;;;;;;6.90;4.80;;;;;;;19.04;57.88;100738.73;116994;1188;23664;-59
2022/09/09 02:42:40;;;;;;;12.20;5.10;;;;;;;18.96;57.72;100736.40;117141;1186;23709;-58
2022/09/09 02:45:09;;;;;;;11.50;5.60;;;;;;;18.88;57.80;100737.58;116948;1187;24215;-64
2022/09/09 02:47:38;;;;;;;11.30;5.10;;;;;;;18.80;57.75;100742.37;116914;1187;21976;-58
2022/09/09 02:50:17;;;;;;;8.80;5.20;;;;;;;18.71;57.81;100743.81;117069;1187;21888;-58
2022/09/09 02:53:03;;;;;;;15.20;5.20;;;;;;;18.69;57.53;100741.23;117011;1188;23455;-58
2022/09/09 02:55:57;;;;;;;6.90;4.80;;;;;;;18.65;57.44;100738.54;117075;1183;23557;-64
2022/09/09 02:58:25;;;;;;;10.30;5.30;;;;;;;18.58;57.47;100743.77;117116;1186;23611;-58
2022/09/09 03:00:52;;;;;;;10.50;5.50;;;;;;;18.50;57.47;100745.52;117070;1184;23553;-65
2022/09/09 03:03:20;;;;;;;8.90;5.20;;;;;;;18.44;57.66;100739.71;117149;1187;21875;-58
2022/09/09 03:05:47;;;;;;;13.80;6.00;;;;;;;18.42;57.53;100738.38;117063;1187;22925;-64
2022/09/09 03:08:14;;;;;;;10.10;5.90;;;;;;;18.40;57.38;100743.25;117016;1187;22518;-64
2022/09/09 03:10:41;;;;;;;10.00;5.70;;;;;;;18.32;57.21;100743.04;117010;1188;22609;-59
2022/09/09 03:13:09;;;;;;;6.80;5.00;;;;;;;18.27;57.31;100741.98;117139;1186;21856;-65
2022/09/09 03:15:37;;;;;;;9.60;5.00;;;;;;;18.24;57.16;100742.10;117126;1186;22624;-65
2022/09/09 03:18:04;;;;;;;9.10;5.30;;;;;;;18.19;57.10;100748.84;117032;1188;21857;-58
2022/09/09 03:20:31;;;;;;;7.20;4.90;;;;;;;18.15;57.04;100755.92;117120;1186;21858;-59
2022/09/09 03:22:59;;;;;;;6.60;4.60;;;;;;;18.06;57.33;100756.25;117177;1183;24167;-65
2022/09/09 03:25:26;;;;;;;8.60;5.60;;;;;;;17.94;57.45;100763.77;117208;1186;21916;-59
2022/09/09 03:27:54;;;;;;;10.30;5.90;;;;;;;17.95;57.33;100763.21;117199;1182;21895;-65
2022/09/09 03:30:22;;;;;;;9.00;5.70;;;;;;;17.91;57.10;100761.58;117198;1183;21867;-59
2022/09/09 03:32:50;;;;;;;10.60;5.80;;;;;;;17.81;57.28;100764.05;117110;1186;21858;-67
2022/09/09 03:35:18;;;;;;;14.00;6.00;;;;;;;17.75;57.39;100769.98;117151;1186;23441;-66
2022/09/09 03:37:45;;;;;;;14.50;6.40;;;;;;;17.63;57.46;100768.96;117053;1182;24175;-60
2022/09/09 03:40:12;;;;;;;8.80;6.40;;;;;;;17.63;57.39;100767.89;117038;1183;23555;-68
2022/09/09 03:42:39;;;;;;;9.00;6.40;;;;;;;17.60;57.56;100768.00;117056;1187;23458;-68
2022/09/09 03:45:08;;;;;;;8.80;6.40;;;;;;;17.51;57.71;100769.39;117197;1186;23596;-67
2022/09/09 03:47:35;;;;;;;9.00;6.10;;;;;;;17.52;57.76;100773.08;117112;1186;23556;-67
2022/09/09 03:50:04;;;;;;;6.80;6.10;;;;;;;17.50;57.85;100777.23;116948;1187;22953;-67
2022/09/09 03:52:31;;;;;;;9.10;6.90;;;;;;;17.57;57.77;100776.80;117043;1187;22928;-68
2022/09/09 03:54:58;;;;;;;8.80;6.30;;;;;;;17.59;57.79;100776.58;117055;1187;21860;-67
2022/09/09 03:57:25;;;;;;;14.50;7.20;;;;;;;17.61;57.93;100779.50;117322;1185;23451;-60
2022/09/09 03:59:52;;;;;;;13.00;6.90;;;;;;;17.60;57.98;100779.38;117033;1186;23556;-60
2022/09/09 04:02:18;;;;;;;14.20;7.30;;;;;;;17.54;58.18;100781.88;117101;1187;23579;-67
2022/09/09 04:04:45;;;;;;;9.30;6.50;;;;;;;17.55;58.26;100782.90;117102;1181;22787;-68
2022/09/09 04:07:13;;;;;;;12.20;7.30;;;;;;;17.61;58.35;100787.30;117110;1182;23474;-59
2022/09/09 04:09:39;;;;;;;9.60;7.70;;;;;;;17.68;58.41;100793.96;117013;1187;22640;-60
2022/09/09 04:12:06;;;;;;;11.80;7.40;;;;;;;17.76;58.51;100799.04;117068;1186;22999;-60
2022/09/09 04:14:33;;;;;;;12.70;7.00;;;;;;;17.84;58.55;100801.41;117013;1187;21896;-68
2022/09/09 04:17:00;;;;;;;12.40;7.20;;;;;;;17.94;58.48;100798.75;117165;1186;21909;-68
2022/09/09 04:19:28;;;;;;;10.20;7.00;;;;;;;18.03;58.51;100796.15;117234;1187;21826;-60
2022/09/09 04:21:54;;;;;;;9.30;6.60;;;;;;;18.10;58.53;100797.11;117127;1186;21861;-67
2022/09/09 04:24:21;;;;;;;9.90;7.00;;;;;;;18.18;58.45;100795.04;117027;1187;23569;-60
2022/09/09 04:26:48;;;;;;;7.50;6.70;;;;;;;18.28;58.40;100794.15;117070;1187;21860;-68
2022/09/09 04:29:15;;;;;;;10.50;7.40;;;;;;;18.44;58.23;100798.54;117056;1185;21993;-60
2022/09/09 04:31:42;;;;;;;10.10;7.10;;;;;;;18.50;58.31;100800.09;116979;1184;22921;-60
2022/09/09 04:34:10;;;;;;;12.90;7.30;;;;;;;18.58;58.34;100800.65;119083;1186;21816;-60
2022/09/09 04:36:40;;;;;;;14.50;7.70;;;;;;;18.68;58.21;100795.66;119182;1183;21789;-60
2022/09/09 04:39:07;;;;;;;9.50;7.20;;;;;;;18.70;58.43;100804.80;119168;1182;22095;-66
2022/09/09 04:41:35;;;;;;;10.80;7.50;;;;;;;18.73;58.54;100801.49;119129;1186;22394;-66
2022/09/09 04:44:02;;;;;;;11.00;7.80;;;;;;;18.80;58.57;100802.82;119056;1186;21847;-58
2022/09/09 04:46:29;;;;;;;8.30;7.10;;;;;;;18.91;58.68;100803.27;118292;1184;21861;-60
2022/09/09 04:48:56;;;;;;;10.90;7.10;;;;;;;19.02;58.73;100809.95;117003;1187;22069;-60
2022/09/09 04:51:23;;;;;;;10.00;8.50;;;;;;;19.13;58.79;100806.65;117137;1186;22482;-60
2022/09/09 04:53:50;;;;;;;11.90;8.30;;;;;;;19.25;59.12;100802.82;117199;1186;23576;-60
2022/09/09 04:56:17;;;;;;;12.40;8.00;;;;;;;19.34;59.06;100799.21;117057;1186;21856;-67
2022/09/09 04:58:45;;;;;;;15.10;8.00;;;;;;;19.48;59.13;100799.16;116957;1184;23662;-60
2022/09/09 05:01:15;;;;;;;15.80;8.20;;;;;;;19.63;59.10;100795.68;116993;1182;21857;-60
2022/09/09 05:03:42;;;;;;;9.90;8.10;;;;;;;19.79;59.29;100794.42;117202;1184;22883;-60
2022/09/09 05:06:11;;;;;;;13.50;8.20;;;;;;;19.95;59.13;100794.84;117105;1186;22321;-67
2022/09/09 05:08:38;;;;;;;12.50;8.20;;;;;;;20.12;59.50;100794.79;117171;1186;23551;-60
2022/09/09 05:11:18;;;;;;;9.00;7.20;;;;;;;20.32;59.36;100792.45;117171;1186;21886;-67
2022/09/09 05:13:45;;;;;;;9.50;6.30;;;;;;;20.51;59.16;100788.20;117031;1184;23597;-66
2022/09/09 05:16:13;;;;;;;8.80;6.60;;;;;;;20.64;58.95;100786.16;117073;1184;22971;-60
2022/09/09 05:18:45;;;;;;;10.10;6.50;;;;;;;20.75;58.78;100786.69;117296;1186;21951;-60
2022/09/09 05:21:14;;;;;;;7.80;5.70;;;;;;;20.90;58.62;100787.27;117141;1186;21927;-67
2022/09/09 05:23:41;;;;;;;7.90;5.40;;;;;;;20.98;58.66;100787.92;117184;1187;23554;-60
2022/09/09 05:26:11;;;;;;;6.70;5.40;;;;;;;21.05;58.74;100780.60;117260;1187;21888;-59
2022/09/09 05:28:43;;;;;;;9.90;7.10;;;;;;;21.23;58.54;100782.41;117018;1185;23456;-60
2022/09/09 05:31:13;;;;;;;11.90;6.50;;;;;;;21.37;58.44;100785.61;116932;1187;24180;-65
2022/09/09 05:33:42;;;;;;;8.60;5.60;;;;;;;21.46;58.62;100786.77;116988;1187;21888;-60
2022/09/09 05:36:13;;;;;;;7.90;5.60;;;;;;;21.59;58.40;100786.67;116965;1186;23006;-60
2022/09/09 05:38:40;;;;;;;8.00;4.10;;;;;;;21.73;58.32;100783.82;117016;1187;21865;-60
2022/09/09 05:41:07;;;;;;;7.60;4.80;;;;;;;21.87;57.85;100781.85;116914;1187;23563;-60
2022/09/09 05:43:35;;;;;;;11.70;5.10;;;;;;;21.93;57.86;100780.98;116966;1185;22949;-60
2022/09/09 05:46:08;;;;;;;8.00;4.70;;;;;;;22.06;57.91;100783.65;119127;1185;22234;-66
2022/09/09 05:48:39;;;;;;;12.40;7.60;;;;;;;22.18;57.97;100781.59;119012;1184;21775;-66
2022/09/09 05:51:08;;;;;;;12.60;6.90;;;;;;;22.35;57.58;100780.84;119020;1186;21783;-61
2022/09/09 05:53:35;;;;;;;8.70;4.00;;;;;;;22.52;57.81;100778.15;119159;1187;21792;-66
2022/09/09 05:56:07;;;;;;;6.40;3.40;;;;;;;22.71;57.15;100777.96;119005;1187;22223;-66
2022/09/09 05:58:34;;;;;;;4.50;3.50;;;;;;;22.84;56.72;100777.59;119131;1183;22270;-66
2022/09/09 06:01:09;;;;;;;7.00;3.30;;;;;;;22.94;56.74;100774.37;119154;1187;21831;-66
2022/09/09 06:03:38;;;;;;;5.90;3.90;;;;;;;23.07;56.78;100770.02;116876;1186;21920;-65
2022/09/09 06:06:06;;;;;;;4.40;3.40;;;;;;;23.22;56.73;100771.10;116978;1184;21863;-65
2022/09/09 06:08:34;;;;;;;6.00;3.70;;;;;;;23.41;56.50;100776.08;117050;1187;21856;-65
2022/09/09 06:11:05;;;;;;;5.90;3.90;;;;;;;23.60;56.30;100772.29;116989;1189;21870;-60
2022/09/09 06:13:33;;;;;;;5.50;3.30;;;;;;;23.79;56.09;100773.46;116882;1184;24162;-60
2022/09/09 06:16:00;;;;;;;4.60;3.40;;;;;;;23.97;55.38;100774.14;117065;1186;21970;-66
2022/09/09 06:18:27;;;;;;;5.80;3.00;;;;;;;24.09;55.01;100774.14;117009;1187;23629;-67
2022/09/09 06:20:58;;;;;;;4.60;2.70;;;;;;;24.26;55.43;100772.92;117294;1185;21859;-67
2022/09/09 06:23:26;;;;;;;5.30;3.00;;;;;;;24.47;55.48;100767.80;117077;1186;21845;-67
2022/09/09 06:26:05;;;;;;;7.70;3.20;;;;;;;24.68;55.03;100765.59;117165;1186;23551;-61
2022/09/09 06:28:36;;;;;;;6.40;3.20;;;;;;;24.87;54.22;100762.73;117235;1187;22725;-61
2022/09/09 06:31:09;;;;;;;4.70;3.00;;;;;;;25.02;54.23;100758.86;117156;1187;21873;-61
2022/09/09 06:33:41;;;;;;;4.90;3.00;;;;;;;25.24;54.13;100755.77;117198;1185;21860;-61
2022/09/09 06:36:15;;;;;;;5.70;3.50;;;;;;;25.36;53.32;100759.96;117124;1184;23457;-60
2022/09/09 06:38:42;;;;;;;3.90;2.70;;;;;;;25.48;53.34;100762.73;117204;1184;24254;-68
2022/09/09 06:41:10;;;;;;;5.80;3.00;;;;;;;25.59;53.05;100762.57;117090;1182;21873;-66
2022/09/09 06:43:37;;;;;;;5.20;2.70;;;;;;;25.72;53.02;100760.61;117184;1187;22938;-61
2022/09/09 06:46:05;;;;;;;6.70;2.50;;;;;;;25.86;52.30;100754.96;116997;1186;22566;-68
2022/09/09 06:48:32;;;;;;;5.10;2.70;;;;;;;26.02;51.86;100754.72;117217;1183;23542;-62
2022/09/09 06:51:17;;;;;;;3.60;2.20;;;;;;;26.17;52.01;100755.27;116953;1186;22921;-69
2022/09/09 06:53:45;;;;;;;4.10;2.20;;;;;;;26.33;51.66;100749.07;119247;1186;21707;-66
2022/09/09 06:56:31;;;;;;;5.90;2.60;;;;;;;26.50;51.60;100746.45;119081;1186;21828;-67
2022/09/09 06:59:00;;;;;;;5.20;2.20;;;;;;;26.62;50.50;100746.42;119085;1186;21776;-67
2022/09/09 07:01:29;;;;;;;4.10;2.30;;;;;;;26.80;50.07;100746.73;119009;1186;22288;-61
2022/09/09 07:03:57;;;;;;;7.20;2.40;;;;;;;27.02;50.24;100746.03;119172;1186;21796;-60
2022/09/09 07:06:28;;;;;;;5.80;2.00;;;;;;;27.30;50.18;100753.45;118302;1186;21857;-65
2022/09/09 07:08:57;;;;;;;5.30;1.90;;;;;;;27.44;49.46;100757.73;118632;1185;23580;-59
2022/09/09 07:11:29;;;;;;;4.30;2.10;;;;;;;27.52;49.12;100759.18;117069;1184;22937;-65
2022/09/09 07:13:57;;;;;;;5.40;2.50;;;;;;;27.61;48.65;100758.65;117044;1184;23592;-66
2022/09/09 07:16:24;;;;;;;3.60;2.20;;;;;;;27.77;48.72;100761.55;117140;1182;23759;-66
2022/09/09 07:18:52;;;;;;;3.30;2.40;;;;;;;27.90;48.78;100763.23;117104;1186;23593;-61
2022/09/09 07:21:20;;;;;;;4.50;2.20;;;;;;;28.03;48.30;100766.20;117139;1184;23554;-62
2022/09/09 07:23:48;;;;;;;9.10;2.50;;;;;;;28.20;47.86;100767.36;117078;1184;22933;-67
2022/09/09 07:26:20;;;;;;;3.50;2.30;;;;;;;28.46;47.77;100764.34;116969;1183;21945;-67
2022/09/09 07:28:47;;;;;;;3.70;2.20;;;;;;;28.60;46.09;100765.00;117015;1187;23576;-68
2022/09/09 07:31:25;;;;;;;4.70;2.10;;;;;;;28.65;46.78;100759.23;117171;1187;23455;-62
2022/09/09 07:33:53;;;;;;;5.60;1.80;;;;;;;28.65;45.90;100761.55;117010;1182;21867;-68
2022/09/09 07:36:21;;;;;;;3.60;2.00;;;;;;;28.65;45.72;100765.88;117058;1184;22639;-69
2022/09/09 07:38:51;;;;;;;3.90;2.10;;;;;;;28.71;45.23;100771.20;117017;1183;23608;-69
2022/09/09 07:41:31;;;;;;;2.90;1.70;;;;;;;28.78;46.15;100771.00;117013;1187;22932;-62
2022/09/09 07:44:00;;;;;;;3.40;1.80;;;;;;;28.91;45.83;100766.84;117503;1185;23482;-68
2022/09/09 07:46:27;;;;;;;3.60;1.90;;;;;;;29.05;46.01;100761.33;117013;1187;22562;-69
2022/09/09 07:48:56;;;;;;;3.60;2.00;;;;;;;29.20;44.67;100760.59;117120;1187;21863;-62
2022/09/09 07:51:35;;;;;;;3.70;1.90;;;;;;;29.28;43.20;100755.59;117208;1184;22925;-69
2022/09/09 07:54:05;;;;;;;4.60;1.90;;;;;;;29.32;43.87;100749.15;117028;1186;23480;-61
2022/09/09 07:56:32;;;;;;;6.00;1.70;;;;;;;29.34;43.13;100748.58;117084;1185;21910;-62
2022/09/09 07:59:00;;;;;;;5.60;1.80;;;;;;;29.45;43.95;100746.41;116973;1189;21886;-68
2022/09/09 08:01:30;;;;;;;4.60;1.70;;;;;;;29.63;42.79;100748.24;116988;1187;23142;-68
2022/09/09 08:04:03;;;;;;;4.30;1.80;;;;;;;29.75;42.72;100741.98;117076;1189;21875;-69
2022/09/09 08:06:35;;;;;;;4.10;1.50;;;;;;;29.72;43.12;100737.08;117172;1186;21841;-69
2022/09/09 08:09:03;;;;;;;5.20;1.80;;;;;;;29.75;43.61;100733.13;117026;1188;22219;-68
2022/09/09 08:11:33;;;;;;;2.20;1.50;;;;;;;29.82;41.76;100733.27;117015;1184;23475;-68
2022/09/09 08:14:10;;;;;;;3.50;1.80;;;;;;;29.84;42.18;100731.13;117217;1186;21891;-61
2022/09/09 08:16:42;;;;;;;10.40;6.00;;;;;;;29.85;42.54;100730.11;117060;1188;21868;-68
2022/09/09 08:19:11;;;;;;;4.10;2.30;;;;;;;29.90;42.63;100733.82;116970;1186;23556;-69
2022/09/09 08:21:43;;;;;;;3.50;2.10;;;;;;;30.03;43.23;100733.98;117025;1186;21977;-61
2022/09/09 08:24:13;;;;;;;5.70;3.20;;;;;;;30.19;42.92;100731.11;117049;1185;22094;-69
2022/09/09 08:26:43;;;;;;;5.70;2.60;;;;;;;30.34;42.06;100730.83;117046;1189;23573;-69
2022/09/09 08:29:14;;;;;;;8.50;2.60;;;;;;;30.45;42.14;100728.38;117075;1188;21871;-61
2022/09/09 08:31:43;;;;;;;15.90;3.80;;;;;;;30.57;41.61;100722.84;117083;1188;23698;-64
2022/09/09 08:34:12;;;;;;;4.60;2.10;;;;;;;30.66;42.32;100725.95;117162;1183;21892;-62
2022/09/09 08:36:42;;;;;;;7.00;3.00;;;;;;;30.80;42.32;100721.98;117046;1187;22929;-62
2022/09/09 08:39:13;;;;;;;5.20;2.50;;;;;;;31.00;42.12;100723.57;117105;1187;23037;-62
2022/09/09 08:42:13;;;;;;;5.00;1.80;;;;;;;31.12;40.98;100721.33;117125;1187;22814;-62
2022/09/09 08:45:12;;;;;;;5.70;2.00;;;;;;;31.02;40.07;100720.30;116952;1188;21827;-65
2022/09/09 08:47:52;;;;;;;4.70;1.80;;;;;;;30.93;41.37;100715.02;117029;1186;22949;-69
2022/09/09 08:50:21;;;;;;;4.60;2.40;;;;;;;30.96;41.99;100712.13;117053;1184;22844;-70
2022/09/09 08:53:21;;;;;;;5.50;2.50;;;;;;;31.05;42.39;100710.81;117010;1186;22085;-62
2022/09/09 08:56:03;;;;;;;5.80;2.40;;;;;;;31.10;41.94;100714.26;117010;1184;23466;-62
2022/09/09 08:58:36;;;;;;;4.40;2.30;;;;;;;31.20;42.20;100709.05;117111;1188;23619;-70
2022/09/09 09:01:26;;;;;;;4.50;2.10;;;;;;;31.31;41.68;100711.61;117063;1189;22924;-62
2022/09/09 09:04:30;;;;;;;9.30;3.90;;;;;;;31.55;41.11;100707.71;116897;1185;21970;-70
2022/09/09 09:07:12;;;;;;;7.70;2.10;;;;;;;31.74;39.67;100709.42;116983;1183;21891;-70
2022/09/09 09:09:59;;;;;;;5.30;2.20;;;;;;;31.79;40.57;100707.83;117049;1186;21867;-70
2022/09/09 09:12:42;;;;;;;4.10;1.90;;;;;;;31.92;39.59;100706.21;117006;1185;21922;-70
2022/09/09 09:15:24;;;;;;;3.30;1.90;;;;;;;32.02;39.73;100699.61;117037;1187;23912;-68
2022/09/09 09:17:57;;;;;;;2.70;1.80;;;;;;;32.07;38.60;100699.09;117003;1189;23003;-68
2022/09/09 09:20:59;;;;;;;5.00;2.20;;;;;;;32.13;39.29;100695.04;117260;1182;22704;-67
2022/09/09 09:23:35;;;;;;;4.40;2.10;;;;;;;32.35;39.58;100693.05;116870;1189;21900;-70
2022/09/09 09:26:02;;;;;;;7.10;2.20;;;;;;;32.55;39.65;100698.40;116973;1184;21862;-62
2022/09/09 09:28:30;;;;;;;2.30;1.60;;;;;;;32.71;37.10;100698.61;117009;1187;22647;-62
2022/09/09 09:31:09;;;;;;;6.80;2.40;;;;;;;32.79;37.87;100694.52;117018;1186;22870;-71
2022/09/09 09:33:50;;;;;;;4.50;2.00;;;;;;;32.91;38.71;100698.17;117003;1189;22567;-72
2022/09/09 09:36:17;;;;;;;4.90;2.40;;;;;;;33.05;38.39;100698.45;117034;1187;21874;-71
2022/09/09 09:38:59;;;;;;;5.00;1.90;;;;;;;33.05;38.20;100698.59;116994;1186;22933;-62
2022/09/09 09:41:46;;;;;;;4.60;2.20;;;;;;;33.01;36.42;100699.34;117087;1187;21856;-69
2022/09/09 09:44:24;;;;;;;5.70;2.00;;;;;;;33.07;37.69;100698.55;116965;1190;21845;-62
2022/09/09 09:46:51;;;;;;;11.60;2.60;;;;;;;33.21;37.55;100694.10;117050;1184;22631;-63
2022/09/09 09:49:18;;;;;;;6.10;2.20;;;;;;;33.33;37.46;100692.67;117025;1188;22844;-63
2022/09/09 09:51:46;;;;;;;3.50;1.80;;;;;;;33.36;36.96;100694.27;116920;1183;22935;-72
2022/09/09 09:54:28;;;;;;;4.70;2.00;;;;;;;33.28;36.14;100695.41;116819;1189;23572;-70
2022/09/09 09:56:55;;;;;;;3.00;1.70;;;;;;;33.25;37.36;100694.38;117168;1187;21858;-71
2022/09/09 09:59:28;;;;;;;4.00;2.00;;;;;;;33.30;37.78;100695.13;117107;1184;24745;-63
2022/09/09 10:02:26;;;;;;;3.50;1.70;;;;;;;33.29;37.45;100694.09;117017;1191;21864;-63
2022/09/09 10:05:25;;;;;;;4.20;2.30;;;;;;;33.11;35.61;100691.48;116802;1189;24456;-63
2022/09/09 10:08:09;;;;;;;;;;;;;;;33.03;36.06;100685.32;117120;1189;22932;-70
2022/09/09 10:10:50;;;;;;;6.00;1.90;;;;;;;33.04;35.86;100683.96;116922;1184;24167;-70
2022/09/09 10:13:23;;;;;;;3.10;1.80;;;;;;;32.99;35.72;100684.88;116974;1189;24169;-63
2022/09/09 10:16:17;;;;;;;5.70;2.10;;;;;;;32.98;36.56;100683.68;117117;1186;21905;-62
2022/09/09 10:18:57;;;;;;;4.60;2.00;;;;;;;32.97;35.51;100687.04;117086;1186;21860;-69
2022/09/09 10:21:46;;;;;;;6.00;1.50;;;;;;;32.85;35.60;100693.70;116985;1187;23580;-62
2022/09/09 10:24:19;;;;;;;4.00;2.10;;;;;;;32.71;35.56;100692.40;117151;1188;22528;-63
2022/09/09 10:27:12;;;;;;;4.10;2.40;;;;;;;32.54;35.20;100695.57;117145;1185;24161;-70
2022/09/09 10:30:08;;;;;;;2.60;1.80;;;;;;;32.41;35.93;100690.91;116999;1186;22648;-70
2022/09/09 10:32:46;;;;;;;5.90;2.10;;;;;;;32.34;35.45;100692.33;117014;1186;23472;-71
2022/09/09 10:35:39;;;;;;;2.90;1.90;;;;;;;32.24;35.69;100691.80;117117;1186;21855;-70
2022/09/09 10:38:29;;;;;;;3.70;2.00;;;;;;;32.17;36.33;100685.08;117070;1184;23618;-70
2022/09/09 10:40:56;;;;;;;3.40;2.20;;;;;;;32.19;36.43;100684.13;117041;1187;21989;-70
2022/09/09 10:43:33;;;;;;;6.40;2.10;;;;;;;32.28;35.96;100687.23;116930;1186;23325;-62
2022/09/09 10:46:16;;;;;;;4.80;2.10;;;;;;;32.35;36.55;100681.63;117084;1186;22886;-63
2022/09/09 10:48:51;;;;;;;6.90;2.00;;;;;;;32.38;36.30;100671.77;117423;1186;21862;-70
2022/09/09 10:51:23;;;;;;;3.10;2.00;;;;;;;32.32;36.42;100669.44;117016;1185;22449;-69
2022/09/09 10:54:08;;;;;;;5.30;2.00;;;;;;;32.23;36.27;100671.04;117084;1182;24165;-69
2022/09/09 10:56:35;;;;;;;4.70;2.60;;;;;;;32.17;36.48;100670.86;117192;1186;22313;-62
2022/09/09 10:59:10;;;;;;;8.50;2.40;;;;;;;32.16;36.67;100663.54;117194;1184;22825;-69
2022/09/09 11:02:00;;;;;;;3.90;2.00;;;;;;;32.22;36.81;100663.50;117158;1182;21852;-72
2022/09/09 11:04:32;;;;;;;7.30;1.80;;;;;;;32.49;36.31;100659.42;117028;1186;22619;-65
2022/09/09 11:07:00;;;;;;;4.70;2.10;;;;;;;32.48;35.50;100666.88;117002;1187;21858;-64
2022/09/09 11:09:29;;;;;;;3.50;2.00;;;;;;;32.48;36.63;100661.31;116964;1187;23563;-63
2022/09/09 11:11:57;;;;;;;3.50;1.90;;;;;;;32.66;36.68;100663.89;117149;1185;21860;-70
2022/09/09 11:14:32;;;;;;;5.20;2.10;;;;;;;32.66;36.25;100661.12;117131;1186;21857;-63
2022/09/09 11:17:24;;;;;;;12.20;2.50;;;;;;;32.76;35.71;100655.92;117033;1187;21879;-63
2022/09/09 11:19:51;;;;;;;4.90;2.10;;;;;;;32.82;34.91;100657.66;117213;1186;21848;-68
2022/09/09 11:22:38;;;;;;;6.40;2.20;;;;;;;32.83;34.96;100655.79;117034;1183;24195;-61
2022/09/09 11:25:09;;;;;;;7.10;2.10;;;;;;;32.81;34.74;100654.87;117145;1184;22945;-68
2022/09/09 11:27:52;;;;;;;4.30;1.90;;;;;;;32.81;34.00;100660.16;117008;1184;23588;-72
2022/09/09 11:30:20;;;;;;;6.80;2.20;;;;;;;32.73;34.09;100660.21;117112;1186;23581;-68
2022/09/09 11:33:26;;;;;;;9.30;2.20;;;;;;;32.56;34.23;100663.75;117064;1187;22519;-68
2022/09/09 11:36:07;;;;;;;4.60;1.90;;;;;;;32.41;33.89;100651.80;117087;1186;22081;-68
2022/09/09 11:38:46;;;;;;;6.10;2.10;;;;;;;32.25;34.88;100650.53;116924;1188;23323;-62
2022/09/09 11:41:14;;;;;;;9.40;2.20;;;;;;;32.10;34.48;100649.98;117110;1187;21877;-64
2022/09/09 11:43:50;;;;;;;6.90;2.10;;;;;;;32.03;33.90;100651.44;117051;1184;23559;-69
2022/09/09 11:46:35;;;;;;;8.00;1.80;;;;;;;31.90;34.91;100651.55;117047;1186;25312;-64